sensor_id;sensor_type;location;lat;lon;timestamp;pressure;altitude;pressure_sealevel;temperature;humidity
34370;BME280;20635;55.812;37.560;2023-08-06T00:00:21;99792.91;;;27.47;56.79
34370;BME280;20635;55.812;37.560;2023-08-06T00:02:48;99792.91;;;27.47;56.70
34370;BME280;20635;55.812;37.560;2023-08-06T00:05:14;99790.09;;;27.47;56.33
34370;BME280;20635;55.812;37.560;2023-08-06T00:07:50;99787.78;;;27.49;56.24
34370;BME280;20635;55.812;37.560;2023-08-06T00:10:16;99789.28;;;27.47;56.52
34370;BME280;20635;55.812;37.560;2023-08-06T00:12:45;99788.44;;;27.46;56.58
34370;BME280;20635;55.812;37.560;2023-08-06T00:15:11;99794.06;;;27.46;56.42
34370;BME280;20635;55.812;37.560;2023-08-06T00:17:37;99787.63;;;27.46;56.02
34370;BME280;20635;55.812;37.560;2023-08-06T00:20:04;99785.16;;;27.44;56.16
34370;BME280;20635;55.812;37.560;2023-08-06T00:22:37;99793.72;;;27.48;56.29
34370;BME280;20635;55.812;37.560;2023-08-06T00:25:04;99796.44;;;27.44;56.39
34370;BME280;20635;55.812;37.560;2023-08-06T00:27:31;99796.44;;;27.44;56.49
34370;BME280;20635;55.812;37.560;2023-08-06T00:29:58;99796.44;;;27.44;56.25
34370;BME280;20635;55.812;37.560;2023-08-06T00:32:24;99796.44;;;27.44;56.30
34370;BME280;20635;55.812;37.560;2023-08-06T00:34:50;99795.59;;;27.44;56.19
34370;BME280;20635;55.812;37.560;2023-08-06T00:37:19;99791.63;;;27.45;56.32
34370;BME280;20635;55.812;37.560;2023-08-06T00:39:45;99794.75;;;27.43;56.13
34370;BME280;20635;55.812;37.560;2023-08-06T00:42:11;99801.25;;;27.44;56.06
34370;BME280;20635;55.812;37.560;2023-08-06T00:44:38;99802.38;;;27.43;56.34
34370;BME280;20635;55.812;37.560;2023-08-06T00:47:05;99799.56;;;27.43;56.40
34370;BME280;20635;55.812;37.560;2023-08-06T00:49:31;99796.75;;;27.43;56.25
34370;BME280;20635;55.812;37.560;2023-08-06T00:51:58;99800.38;;;27.43;56.25
34370;BME280;20635;55.812;37.560;2023-08-06T00:54:24;99793.13;;;27.42;56.25
34370;BME280;20635;55.812;37.560;2023-08-06T00:56:51;99790.31;;;27.42;56.27
34370;BME280;20635;55.812;37.560;2023-08-06T00:59:16;99793.13;;;27.42;56.55
34370;BME280;20635;55.812;37.560;2023-08-06T01:01:43;99798.75;;;27.42;56.67
34370;BME280;20635;55.812;37.560;2023-08-06T01:04:10;99806.00;;;27.43;56.42
34370;BME280;20635;55.812;37.560;2023-08-06T01:09:35;99800.88;;;27.45;56.83
34370;BME280;20635;55.812;37.560;2023-08-06T01:12:17;99808.50;;;27.45;56.76
34370;BME280;20635;55.812;37.560;2023-08-06T01:14:51;99808.00;;;27.43;56.37
34370;BME280;20635;55.812;37.560;2023-08-06T01:17:20;99807.53;;;27.41;56.77
34370;BME280;20635;55.812;37.560;2023-08-06T01:19:46;99806.72;;;27.40;57.01
34370;BME280;20635;55.812;37.560;2023-08-06T01:22:12;99801.09;;;27.40;57.19
34370;BME280;20635;55.812;37.560;2023-08-06T01:24:37;99805.91;;;27.40;57.05
34370;BME280;20635;55.812;37.560;2023-08-06T01:27:07;99809.53;;;27.40;57.02
34370;BME280;20635;55.812;37.560;2023-08-06T01:29:43;99806.38;;;27.42;56.88
34370;BME280;20635;55.812;37.560;2023-08-06T01:32:11;99815.50;;;27.39;56.92
34370;BME280;20635;55.812;37.560;2023-08-06T01:34:40;99809.88;;;27.39;56.87
34370;BME280;20635;55.812;37.560;2023-08-06T01:37:07;99809.88;;;27.39;56.65
34370;BME280;20635;55.812;37.560;2023-08-06T01:39:34;99804.59;;;27.37;56.67
34370;BME280;20635;55.812;37.560;2023-08-06T01:42:03;99806.59;;;27.37;57.13
34370;BME280;20635;55.812;37.560;2023-08-06T01:44:29;99813.84;;;27.38;56.85
34370;BME280;20635;55.812;37.560;2023-08-06T01:46:55;99804.94;;;27.36;56.97
34370;BME280;20635;55.812;37.560;2023-08-06T01:49:21;99816.19;;;27.36;56.88
34370;BME280;20635;55.812;37.560;2023-08-06T01:51:46;99818.19;;;27.35;56.98
34370;BME280;20635;55.812;37.560;2023-08-06T01:54:12;99812.56;;;27.35;56.66
34370;BME280;20635;55.812;37.560;2023-08-06T01:56:38;99819.34;;;27.34;56.88
34370;BME280;20635;55.812;37.560;2023-08-06T01:59:04;99816.53;;;27.34;56.72
34370;BME280;20635;55.812;37.560;2023-08-06T02:01:29;99824.97;;;27.34;56.58
34370;BME280;20635;55.812;37.560;2023-08-06T02:03:55;99817.69;;;27.33;56.89
34370;BME280;20635;55.812;37.560;2023-08-06T02:06:21;99835.41;;;27.34;56.78
34370;BME280;20635;55.812;37.560;2023-08-06T02:08:47;99816.88;;;27.33;56.94
34370;BME280;20635;55.812;37.560;2023-08-06T02:11:15;99829.31;;;27.31;56.90
34370;BME280;20635;55.812;37.560;2023-08-06T02:13:41;99832.94;;;27.32;56.57
34370;BME280;20635;55.812;37.560;2023-08-06T02:16:07;99843.38;;;27.31;56.64
34370;BME280;20635;55.812;37.560;2023-08-06T02:18:35;99833.75;;;27.33;56.78
34370;BME280;20635;55.812;37.560;2023-08-06T02:21:01;99837.75;;;27.31;56.83
34370;BME280;20635;55.812;37.560;2023-08-06T02:23:28;99833.28;;;27.30;56.81
34370;BME280;20635;55.812;37.560;2023-08-06T02:26:00;99837.88;;;27.35;57.10
34370;BME280;20635;55.812;37.560;2023-08-06T02:28:28;99843.38;;;27.31;56.86
34370;BME280;20635;55.812;37.560;2023-08-06T02:30:54;99839.72;;;27.31;56.77
34370;BME280;20635;55.812;37.560;2023-08-06T02:33:20;99839.72;;;27.31;56.92
34370;BME280;20635;55.812;37.560;2023-08-06T02:35:45;99840.91;;;27.30;57.05
34370;BME280;20635;55.812;37.560;2023-08-06T02:38:11;99835.28;;;27.30;56.74
34370;BME280;20635;55.812;37.560;2023-08-06T02:40:43;99840.19;;;27.33;57.08
34370;BME280;20635;55.812;37.560;2023-08-06T02:43:09;99834.44;;;27.29;56.85
34370;BME280;20635;55.812;37.560;2023-08-06T02:45:35;99833.63;;;27.29;56.90
34370;BME280;20635;55.812;37.560;2023-08-06T02:48:01;99834.44;;;27.29;56.88
34370;BME280;20635;55.812;37.560;2023-08-06T02:50:28;99840.91;;;27.30;57.01
34370;BME280;20635;55.812;37.560;2023-08-06T02:52:54;99830.78;;;27.29;57.34
34370;BME280;20635;55.812;37.560;2023-08-06T02:55:20;99830.78;;;27.29;57.14
34370;BME280;20635;55.812;37.560;2023-08-06T02:57:47;99826.34;;;27.28;57.23
34370;BME280;20635;55.812;37.560;2023-08-06T03:00:15;99823.53;;;27.28;57.64
34370;BME280;20635;55.812;37.560;2023-08-06T03:02:41;99833.16;;;27.27;57.18
34370;BME280;20635;55.812;37.560;2023-08-06T03:05:21;99831.97;;;27.28;57.37
34370;BME280;20635;55.812;37.560;2023-08-06T03:07:47;99828.34;;;27.27;57.52
34370;BME280;20635;55.812;37.560;2023-08-06T03:10:21;99831.97;;;27.28;57.30
34370;BME280;20635;55.812;37.560;2023-08-06T03:12:50;99823.53;;;27.28;57.54
34370;BME280;20635;55.812;37.560;2023-08-06T03:15:16;99824.69;;;27.27;57.67
34370;BME280;20635;55.812;37.560;2023-08-06T03:17:44;99830.31;;;27.27;57.47
34370;BME280;20635;55.812;37.560;2023-08-06T03:20:10;99828.69;;;27.26;57.43
34370;BME280;20635;55.812;37.560;2023-08-06T03:22:37;99837.94;;;27.26;57.28
34370;BME280;20635;55.812;37.560;2023-08-06T03:25:03;99837.94;;;27.26;57.89
34370;BME280;20635;55.812;37.560;2023-08-06T03:27:29;99832.31;;;27.26;57.63
34370;BME280;20635;55.812;37.560;2023-08-06T03:29:55;99828.69;;;27.26;57.85
34370;BME280;20635;55.812;37.560;2023-08-06T03:32:25;99835.13;;;27.26;57.75
34370;BME280;20635;55.812;37.560;2023-08-06T03:34:52;99838.78;;;27.27;57.85
34370;BME280;20635;55.812;37.560;2023-08-06T03:37:19;99832.31;;;27.26;57.58
34370;BME280;20635;55.812;37.560;2023-08-06T03:39:45;99835.97;;;27.27;57.84
34370;BME280;20635;55.812;37.560;2023-08-06T03:42:10;99835.13;;;27.26;58.16
34370;BME280;20635;55.812;37.560;2023-08-06T03:44:36;99835.97;;;27.27;57.58
34370;BME280;20635;55.812;37.560;2023-08-06T03:47:02;99831.50;;;27.26;57.92
34370;BME280;20635;55.812;37.560;2023-08-06T03:49:28;99830.31;;;27.27;58.03
34370;BME280;20635;55.812;37.560;2023-08-06T03:51:54;99828.34;;;27.27;57.93
34370;BME280;20635;55.812;37.560;2023-08-06T03:54:20;99835.13;;;27.26;57.69
34370;BME280;20635;55.812;37.560;2023-08-06T03:56:46;99830.31;;;27.27;57.70
34370;BME280;20635;55.812;37.560;2023-08-06T03:59:12;99829.50;;;27.26;57.60
34370;BME280;20635;55.812;37.560;2023-08-06T04:01:39;99830.31;;;27.27;57.65
34370;BME280;20635;55.812;37.560;2023-08-06T04:04:04;99821.06;;;27.26;57.55
34370;BME280;20635;55.812;37.560;2023-08-06T04:06:30;99823.88;;;27.26;57.79
34370;BME280;20635;55.812;37.560;2023-08-06T04:08:56;99824.69;;;27.27;57.65
34370;BME280;20635;55.812;37.560;2023-08-06T04:11:22;99824.69;;;27.27;57.67
34370;BME280;20635;55.812;37.560;2023-08-06T04:13:48;99824.69;;;27.27;57.72
34370;BME280;20635;55.812;37.560;2023-08-06T04:16:13;99820.72;;;27.28;57.64
34370;BME280;20635;55.812;37.560;2023-08-06T04:18:41;99819.91;;;27.27;57.17
34370;BME280;20635;55.812;37.560;2023-08-06T04:21:06;99816.25;;;27.27;57.22
34370;BME280;20635;55.812;37.560;2023-08-06T04:23:32;99802.19;;;27.27;57.70
34370;BME280;20635;55.812;37.560;2023-08-06T04:26:02;99821.88;;;27.27;57.90
34370;BME280;20635;55.812;37.560;2023-08-06T04:28:32;99830.78;;;27.29;57.68
34370;BME280;20635;55.812;37.560;2023-08-06T04:30:59;99832.78;;;27.28;57.43
34370;BME280;20635;55.812;37.560;2023-08-06T04:33:25;99832.78;;;27.28;57.84
34370;BME280;20635;55.812;37.560;2023-08-06T04:35:54;99825.66;;;27.31;57.47
34370;BME280;20635;55.812;37.560;2023-08-06T04:38:26;99830.94;;;27.33;57.76
34370;BME280;20635;55.812;37.560;2023-08-06T04:40:53;99824.84;;;27.30;57.55
34370;BME280;20635;55.812;37.560;2023-08-06T04:43:19;99827.31;;;27.32;57.63
34370;BME280;20635;55.812;37.560;2023-08-06T04:45:49;99823.69;;;27.31;57.22
34370;BME280;20635;55.812;37.560;2023-08-06T04:48:16;99824.50;;;27.32;57.67
34370;BME280;20635;55.812;37.560;2023-08-06T04:50:45;99819.34;;;27.34;58.22
34370;BME280;20635;55.812;37.560;2023-08-06T04:53:12;99817.69;;;27.33;58.02
34370;BME280;20635;55.812;37.560;2023-08-06T04:55:37;99826.13;;;27.33;57.80
34370;BME280;20635;55.812;37.560;2023-08-06T04:58:03;99833.06;;;27.36;58.03
34370;BME280;20635;55.812;37.560;2023-08-06T05:00:29;99821.81;;;27.36;57.70
34370;BME280;20635;55.812;37.560;2023-08-06T05:02:55;99821.81;;;27.36;57.86
34370;BME280;20635;55.812;37.560;2023-08-06T05:05:21;99820.66;;;27.37;57.70
34370;BME280;20635;55.812;37.560;2023-08-06T05:07:50;99826.75;;;27.39;58.13
34370;BME280;20635;55.812;37.560;2023-08-06T05:10:16;99815.84;;;27.37;58.02
34370;BME280;20635;55.812;37.560;2023-08-06T05:12:42;99819.16;;;27.39;58.17
34370;BME280;20635;55.812;37.560;2023-08-06T05:15:08;99812.34;;;27.40;57.89
34370;BME280;20635;55.812;37.560;2023-08-06T05:17:34;99807.53;;;27.41;57.95
34370;BME280;20635;55.812;37.560;2023-08-06T05:19:59;99815.97;;;27.41;57.33
34370;BME280;20635;55.812;37.560;2023-08-06T05:22:25;99803.56;;;27.42;57.78
34370;BME280;20635;55.812;37.560;2023-08-06T05:24:51;99814.00;;;27.41;57.91
34370;BME280;20635;55.812;37.560;2023-08-06T05:27:17;99812.81;;;27.42;57.60
34370;BME280;20635;55.812;37.560;2023-08-06T05:29:45;99812.81;;;27.42;57.90
34370;BME280;20635;55.812;37.560;2023-08-06T05:32:10;99800.38;;;27.43;57.64
34370;BME280;20635;55.812;37.560;2023-08-06T05:34:36;99795.94;;;27.42;58.08
34370;BME280;20635;55.812;37.560;2023-08-06T05:37:03;99808.50;;;27.45;58.34
34370;BME280;20635;55.812;37.560;2023-08-06T05:39:29;99794.44;;;27.45;58.10
34370;BME280;20635;55.812;37.560;2023-08-06T05:41:55;99800.53;;;27.47;58.39
34370;BME280;20635;55.812;37.560;2023-08-06T05:44:21;99806.16;;;27.47;58.49
34370;BME280;20635;55.812;37.560;2023-08-06T05:46:47;99800.53;;;27.47;58.41
34370;BME280;20635;55.812;37.560;2023-08-06T05:49:13;99804.16;;;27.47;57.21
34370;BME280;20635;55.812;37.560;2023-08-06T05:51:39;99803.34;;;27.47;57.35
34370;BME280;20635;55.812;37.560;2023-08-06T05:54:05;99801.34;;;27.47;57.43
34370;BME280;20635;55.812;37.560;2023-08-06T05:56:31;99801.34;;;27.47;57.53
34370;BME280;20635;55.812;37.560;2023-08-06T05:58:57;99802.16;;;27.48;57.55
34370;BME280;20635;55.812;37.560;2023-08-06T06:01:22;99796.53;;;27.48;57.36
34370;BME280;20635;55.812;37.560;2023-08-06T06:03:48;99801.34;;;27.47;57.34
34370;BME280;20635;55.812;37.560;2023-08-06T06:06:14;99799.34;;;27.48;57.30
34370;BME280;20635;55.812;37.560;2023-08-06T06:08:41;99803.84;;;27.49;57.28
34370;BME280;20635;55.812;37.560;2023-08-06T06:11:07;99796.22;;;27.49;57.04
34370;BME280;20635;55.812;37.560;2023-08-06T06:13:33;99792.59;;;27.49;57.42
34370;BME280;20635;55.812;37.560;2023-08-06T06:15:59;99793.41;;;27.49;57.46
34370;BME280;20635;55.812;37.560;2023-08-06T06:18:25;99789.75;;;27.49;57.29
34370;BME280;20635;55.812;37.560;2023-08-06T06:20:50;99795.03;;;27.50;57.58
34370;BME280;20635;55.812;37.560;2023-08-06T06:23:16;99786.59;;;27.50;57.28
34370;BME280;20635;55.812;37.560;2023-08-06T06:25:51;99794.00;;;27.55;57.41
34370;BME280;20635;55.812;37.560;2023-08-06T06:28:18;99800.00;;;27.53;57.50
34370;BME280;20635;55.812;37.560;2023-08-06T06:30:44;99785.41;;;27.51;57.02
34370;BME280;20635;55.812;37.560;2023-08-06T06:33:09;99785.09;;;27.53;56.75
34370;BME280;20635;55.812;37.560;2023-08-06T06:35:36;99797.19;;;27.53;57.20
34370;BME280;20635;55.812;37.560;2023-08-06T06:38:02;99794.34;;;27.53;57.05
34370;BME280;20635;55.812;37.560;2023-08-06T06:40:28;99793.53;;;27.53;56.90
34370;BME280;20635;55.812;37.560;2023-08-06T06:42:54;99793.19;;;27.54;57.15
34370;BME280;20635;55.812;37.560;2023-08-06T06:45:20;99795.19;;;27.54;56.81
34370;BME280;20635;55.812;37.560;2023-08-06T06:47:45;99780.75;;;27.55;57.27
34370;BME280;20635;55.812;37.560;2023-08-06T06:50:14;99784.38;;;27.56;57.23
34370;BME280;20635;55.812;37.560;2023-08-06T06:52:41;99791.69;;;27.57;57.08
34370;BME280;20635;55.812;37.560;2023-08-06T06:55:07;99777.59;;;27.57;56.98
34370;BME280;20635;55.812;37.560;2023-08-06T06:57:33;99782.38;;;27.56;57.03
34370;BME280;20635;55.812;37.560;2023-08-06T06:59:59;99786.88;;;27.58;57.01
34370;BME280;20635;55.812;37.560;2023-08-06T07:02:25;99788.88;;;27.57;56.87
34370;BME280;20635;55.812;37.560;2023-08-06T07:04:51;99780.88;;;27.59;57.34
34370;BME280;20635;55.812;37.560;2023-08-06T07:07:17;99787.34;;;27.60;56.52
34370;BME280;20635;55.812;37.560;2023-08-06T07:09:42;99770.00;;;27.58;56.67
34370;BME280;20635;55.812;37.560;2023-08-06T07:12:08;99774.09;;;27.60;56.99
34370;BME280;20635;55.812;37.560;2023-08-06T07:14:34;99778.91;;;27.60;56.63
34370;BME280;20635;55.812;37.560;2023-08-06T07:17:00;99784.16;;;27.61;56.59
34370;BME280;20635;55.812;37.560;2023-08-06T07:19:26;99780.22;;;27.62;56.51
34370;BME280;20635;55.812;37.560;2023-08-06T07:21:52;99772.59;;;27.63;56.78
34370;BME280;20635;55.812;37.560;2023-08-06T07:24:18;99774.22;;;27.64;56.84
34370;BME280;20635;55.812;37.560;2023-08-06T07:26:43;99771.41;;;27.64;56.72
34370;BME280;20635;55.812;37.560;2023-08-06T07:29:09;99771.06;;;27.65;56.62
34370;BME280;20635;55.812;37.560;2023-08-06T07:31:35;99775.84;;;27.65;56.67
34370;BME280;20635;55.812;37.560;2023-08-06T07:34:01;99772.22;;;27.64;56.96
34370;BME280;20635;55.812;37.560;2023-08-06T07:36:27;99768.72;;;27.67;56.85
34370;BME280;20635;55.812;37.560;2023-08-06T07:38:53;99763.41;;;27.66;57.12
34370;BME280;20635;55.812;37.560;2023-08-06T07:41:24;99770.38;;;27.68;56.61
34370;BME280;20635;55.812;37.560;2023-08-06T07:43:50;99766.72;;;27.68;56.88
34370;BME280;20635;55.812;37.560;2023-08-06T07:46:16;99769.53;;;27.68;56.71
34370;BME280;20635;55.812;37.560;2023-08-06T07:48:42;99765.91;;;27.67;56.88
34370;BME280;20635;55.812;37.560;2023-08-06T07:51:08;99759.09;;;27.68;56.81
34370;BME280;20635;55.812;37.560;2023-08-06T07:53:34;99766.38;;;27.69;56.63
34370;BME280;20635;55.812;37.560;2023-08-06T07:56:00;99769.19;;;27.69;56.79
34370;BME280;20635;55.812;37.560;2023-08-06T07:58:27;99766.38;;;27.69;56.91
34370;BME280;20635;55.812;37.560;2023-08-06T08:00:55;99766.88;;;27.71;57.14
34370;BME280;20635;55.812;37.560;2023-08-06T08:03:21;99766.03;;;27.71;56.65
34370;BME280;20635;55.812;37.560;2023-08-06T08:05:46;99762.09;;;27.72;56.69
34370;BME280;20635;55.812;37.560;2023-08-06T08:08:12;99754.47;;;27.72;56.73
34370;BME280;20635;55.812;37.560;2023-08-06T08:10:38;99760.91;;;27.73;56.83
34370;BME280;20635;55.812;37.560;2023-08-06T08:13:05;99760.91;;;27.73;56.54
34370;BME280;20635;55.812;37.560;2023-08-06T08:15:31;99749.66;;;27.73;56.85
34370;BME280;20635;55.812;37.560;2023-08-06T08:17:58;99756.09;;;27.73;56.80
34370;BME280;20635;55.812;37.560;2023-08-06T08:20:24;99753.28;;;27.73;56.68
34370;BME280;20635;55.812;37.560;2023-08-06T08:22:50;99750.47;;;27.73;56.53
34370;BME280;20635;55.812;37.560;2023-08-06T08:25:16;99754.09;;;27.74;56.49
34370;BME280;20635;55.812;37.560;2023-08-06T08:27:42;99748.47;;;27.74;56.54
34370;BME280;20635;55.812;37.560;2023-08-06T08:30:08;99748.47;;;27.74;56.74
34370;BME280;20635;55.812;37.560;2023-08-06T08:32:34;99745.66;;;27.74;56.54
34370;BME280;20635;55.812;37.560;2023-08-06T08:35:00;99754.91;;;27.74;56.43
34370;BME280;20635;55.812;37.560;2023-08-06T08:37:26;99747.28;;;27.75;56.66
34370;BME280;20635;55.812;37.560;2023-08-06T08:39:51;99745.66;;;27.74;56.49
34370;BME280;20635;55.812;37.560;2023-08-06T08:42:18;99737.22;;;27.74;56.78
34370;BME280;20635;55.812;37.560;2023-08-06T08:44:44;99737.22;;;27.74;56.34
34370;BME280;20635;55.812;37.560;2023-08-06T08:47:10;99738.84;;;27.75;56.45
34370;BME280;20635;55.812;37.560;2023-08-06T08:49:37;99745.34;;;27.75;56.42
34370;BME280;20635;55.812;37.560;2023-08-06T08:52:04;99746.16;;;27.76;56.41
34370;BME280;20635;55.812;37.560;2023-08-06T08:54:34;99733.22;;;27.75;56.65
34370;BME280;20635;55.812;37.560;2023-08-06T08:57:01;99735.22;;;27.74;56.37
34370;BME280;20635;55.812;37.560;2023-08-06T08:59:27;99742.50;;;27.75;56.37
34370;BME280;20635;55.812;37.560;2023-08-06T09:01:54;99734.06;;;27.75;56.60
34370;BME280;20635;55.812;37.560;2023-08-06T09:04:20;99742.50;;;27.75;56.70
34370;BME280;20635;55.812;37.560;2023-08-06T09:06:51;99737.34;;;27.77;56.78
34370;BME280;20635;55.812;37.560;2023-08-06T09:09:26;99723.72;;;27.79;56.71
34370;BME280;20635;55.812;37.560;2023-08-06T09:11:58;99727.25;;;27.76;56.22
34370;BME280;20635;55.812;37.560;2023-08-06T09:14:26;99723.63;;;27.76;56.26
34370;BME280;20635;55.812;37.560;2023-08-06T09:16:52;99727.25;;;27.76;56.35
34370;BME280;20635;55.812;37.560;2023-08-06T09:19:18;99723.63;;;27.76;56.29
34370;BME280;20635;55.812;37.560;2023-08-06T09:21:45;99727.25;;;27.76;56.50
34370;BME280;20635;55.812;37.560;2023-08-06T09:24:14;99730.91;;;27.77;56.63
34370;BME280;20635;55.812;37.560;2023-08-06T09:26:42;99730.91;;;27.77;56.58
34370;BME280;20635;55.812;37.560;2023-08-06T09:29:10;99722.44;;;27.77;56.32
34370;BME280;20635;55.812;37.560;2023-08-06T09:31:43;99724.09;;;27.78;56.29
34370;BME280;20635;55.812;37.560;2023-08-06T09:34:21;99721.41;;;27.81;56.27
34370;BME280;20635;55.812;37.560;2023-08-06T09:36:51;99715.63;;;27.78;56.68
34370;BME280;20635;55.812;37.560;2023-08-06T09:39:19;99726.91;;;27.78;56.55
34370;BME280;20635;55.812;37.560;2023-08-06T09:41:46;99716.47;;;27.78;56.32
34370;BME280;20635;55.812;37.560;2023-08-06T09:44:19;99718.44;;;27.78;56.60
34370;BME280;20635;55.812;37.560;2023-08-06T09:46:49;99712.47;;;27.79;56.63
34370;BME280;20635;55.812;37.560;2023-08-06T09:49:17;99712.00;;;27.77;56.35
34370;BME280;20635;55.812;37.560;2023-08-06T09:51:44;99710.00;;;27.78;56.51
34370;BME280;20635;55.812;37.560;2023-08-06T09:54:14;99698.38;;;27.79;56.34
34370;BME280;20635;55.812;37.560;2023-08-06T09:56:42;99701.56;;;27.78;56.28
34370;BME280;20635;55.812;37.560;2023-08-06T09:59:08;99689.13;;;27.79;56.42
34370;BME280;20635;55.812;37.560;2023-08-06T10:01:36;99688.31;;;27.78;56.48
34370;BME280;20635;55.812;37.560;2023-08-06T10:04:04;99684.31;;;27.79;56.48
34370;BME280;20635;55.812;37.560;2023-08-06T10:06:33;99688.44;;;27.82;56.26
34370;BME280;20635;55.812;37.560;2023-08-06T10:09:00;99687.13;;;27.79;56.51
34370;BME280;20635;55.812;37.560;2023-08-06T10:11:26;99685.16;;;27.80;56.50
34370;BME280;20635;55.812;37.560;2023-08-06T10:16:35;99677.16;;;27.82;56.27
34370;BME280;20635;55.812;37.560;2023-08-06T10:19:04;99673.16;;;27.83;56.62
34370;BME280;20635;55.812;37.560;2023-08-06T10:21:31;99666.72;;;27.83;56.45
34370;BME280;20635;55.812;37.560;2023-08-06T10:23:58;99668.72;;;27.82;56.50
34370;BME280;20635;55.812;37.560;2023-08-06T10:26:28;99663.53;;;27.84;56.68
34370;BME280;20635;55.812;37.560;2023-08-06T10:28:54;99663.09;;;27.82;56.55
34370;BME280;20635;55.812;37.560;2023-08-06T10:31:43;99659.09;;;27.83;56.26
34370;BME280;20635;55.812;37.560;2023-08-06T10:34:07;99664.41;;;27.85;56.48
34370;BME280;20635;55.812;37.560;2023-08-06T10:36:33;99662.41;;;27.85;56.43
34370;BME280;20635;55.812;37.560;2023-08-06T10:38:59;99654.28;;;27.84;56.21
34370;BME280;20635;55.812;37.560;2023-08-06T10:41:29;99655.59;;;27.86;56.68
34370;BME280;20635;55.812;37.560;2023-08-06T10:44:09;99660.16;;;27.91;56.38
34370;BME280;20635;55.812;37.560;2023-08-06T10:46:35;99649.94;;;27.86;56.34
34370;BME280;20635;55.812;37.560;2023-08-06T10:49:02;99649.13;;;27.86;56.34
34370;BME280;20635;55.812;37.560;2023-08-06T10:51:28;99644.31;;;27.86;56.39
34370;BME280;20635;55.812;37.560;2023-08-06T10:53:54;99649.13;;;27.86;56.62
34370;BME280;20635;55.812;37.560;2023-08-06T10:56:22;99641.97;;;27.88;56.32
34370;BME280;20635;55.812;37.560;2023-08-06T10:58:50;99646.44;;;27.89;56.28
34370;BME280;20635;55.812;37.560;2023-08-06T11:01:17;99644.44;;;27.90;56.40
34370;BME280;20635;55.812;37.560;2023-08-06T11:03:44;99650.91;;;27.90;56.32
34370;BME280;20635;55.812;37.560;2023-08-06T11:06:10;99646.09;;;27.91;56.41
34370;BME280;20635;55.812;37.560;2023-08-06T11:08:40;99650.53;;;27.92;56.41
34370;BME280;20635;55.812;37.560;2023-08-06T11:11:13;99640.09;;;27.92;56.64
34370;BME280;20635;55.812;37.560;2023-08-06T11:13:42;99637.75;;;27.94;56.69
34370;BME280;20635;55.812;37.560;2023-08-06T11:16:09;99648.22;;;27.94;56.55
34370;BME280;20635;55.812;37.560;2023-08-06T11:18:35;99641.41;;;27.95;56.52
34370;BME280;20635;55.812;37.560;2023-08-06T11:21:02;99639.41;;;27.95;56.42
34370;BME280;20635;55.812;37.560;2023-08-06T11:23:28;99643.03;;;27.96;56.67
34370;BME280;20635;55.812;37.560;2023-08-06T11:25:56;99644.34;;;27.98;56.49
34370;BME280;20635;55.812;37.560;2023-08-06T11:28:22;99636.72;;;27.99;56.44
34370;BME280;20635;55.812;37.560;2023-08-06T11:30:49;99637.97;;;28.01;56.49
34370;BME280;20635;55.812;37.560;2023-08-06T11:33:20;99640.09;;;28.04;56.52
34370;BME280;20635;55.812;37.560;2023-08-06T11:35:47;99632.84;;;28.03;56.31
34370;BME280;20635;55.812;37.560;2023-08-06T11:38:13;99643.75;;;28.05;56.34
34370;BME280;20635;55.812;37.560;2023-08-06T11:40:39;99640.56;;;28.06;56.31
34370;BME280;20635;55.812;37.560;2023-08-06T11:43:06;99638.22;;;28.09;56.51
34370;BME280;20635;55.812;37.560;2023-08-06T11:45:35;99642.31;;;28.11;56.19
34370;BME280;20635;55.812;37.560;2023-08-06T11:48:01;99627.41;;;28.11;56.09
34370;BME280;20635;55.812;37.560;2023-08-06T11:50:28;99626.25;;;28.12;56.45
34370;BME280;20635;55.812;37.560;2023-08-06T11:52:57;99623.91;;;28.14;56.63
34370;BME280;20635;55.812;37.560;2023-08-06T11:55:25;99620.72;;;28.15;56.38
34370;BME280;20635;55.812;37.560;2023-08-06T11:57:51;99616.75;;;28.16;56.31
34370;BME280;20635;55.812;37.560;2023-08-06T12:00:17;99625.66;;;28.18;55.97
34370;BME280;20635;55.812;37.560;2023-08-06T12:02:49;99610.75;;;28.30;56.10
34370;BME280;20635;55.812;37.560;2023-08-06T12:05:20;99623.09;;;28.25;56.35
34370;BME280;20635;55.812;37.560;2023-08-06T12:07:55;99626.81;;;28.29;56.37
34370;BME280;20635;55.812;37.560;2023-08-06T12:10:23;99615.44;;;28.26;56.08
34370;BME280;20635;55.812;37.560;2023-08-06T12:12:49;99601.00;;;28.27;56.19
34370;BME280;20635;55.812;37.560;2023-08-06T12:15:16;99618.72;;;28.28;56.35
34370;BME280;20635;55.812;37.560;2023-08-06T12:17:42;99602.28;;;28.30;56.48
34370;BME280;20635;55.812;37.560;2023-08-06T12:20:09;99608.38;;;28.32;55.97
34370;BME280;20635;55.812;37.560;2023-08-06T12:22:36;99599.94;;;28.32;55.99
34370;BME280;20635;55.812;37.560;2023-08-06T12:27:37;99599.72;;;28.37;55.83
34370;BME280;20635;55.812;37.560;2023-08-06T12:30:04;99599.00;;;28.40;55.87
34370;BME280;20635;55.812;37.560;2023-08-06T12:32:31;99603.47;;;28.41;55.89
34370;BME280;20635;55.812;37.560;2023-08-06T12:34:57;99600.75;;;28.45;56.22
34370;BME280;20635;55.812;37.560;2023-08-06T12:37:27;99597.22;;;28.48;56.24
34370;BME280;20635;55.812;37.560;2023-08-06T12:39:53;99600.88;;;28.48;55.76
34370;BME280;20635;55.812;37.560;2023-08-06T12:42:19;99598.13;;;28.52;55.75
34370;BME280;20635;55.812;37.560;2023-08-06T12:44:48;99597.00;;;28.53;55.60
34370;BME280;20635;55.812;37.560;2023-08-06T12:47:15;99597.44;;;28.55;55.84
34370;BME280;20635;55.812;37.560;2023-08-06T12:49:51;99602.50;;;28.62;55.57
34370;BME280;20635;55.812;37.560;2023-08-06T12:52:17;99591.91;;;28.59;55.61
34370;BME280;20635;55.812;37.560;2023-08-06T12:54:45;99585.56;;;28.62;55.42
34370;BME280;20635;55.812;37.560;2023-08-06T12:57:12;99587.22;;;28.63;55.93